createdAt,value
2022-09-28T00:02:01.730Z,11.63
2022-09-28T00:04:28.370Z,11.65
2022-09-28T00:06:54.922Z,11.66
2022-09-28T00:09:21.491Z,11.64
2022-09-28T00:11:48.069Z,11.63
2022-09-28T00:14:15.481Z,11.62
2022-09-28T00:16:44.097Z,11.58
2022-09-28T00:19:12.266Z,11.64
2022-09-28T00:21:40.949Z,11.56
2022-09-28T00:24:13.113Z,11.55
2022-09-28T00:26:41.119Z,11.46
2022-09-28T00:29:12.997Z,11.44
2022-09-28T00:31:39.678Z,11.43
2022-09-28T00:34:06.364Z,11.52
2022-09-28T00:36:33.748Z,11.46
2022-09-28T00:39:04.803Z,11.50
2022-09-28T00:41:31.457Z,11.37
2022-09-28T00:44:22.921Z,11.51
2022-09-28T00:47:00.177Z,11.52
2022-09-28T00:49:43.492Z,11.52
2022-09-28T00:52:13.801Z,11.55
2022-09-28T00:54:42.299Z,11.45
2022-09-28T00:57:09.367Z,11.51
2022-09-28T00:59:35.948Z,11.54
2022-09-28T01:02:02.854Z,11.47
2022-09-28T01:04:30.303Z,11.50
2022-09-28T01:06:58.075Z,11.57
2022-09-28T01:09:26.201Z,11.56
2022-09-28T01:11:52.926Z,11.55
2022-09-28T01:14:20.718Z,11.53
2022-09-28T01:16:59.272Z,11.51
2022-09-28T01:19:37.945Z,11.49
2022-09-28T01:22:19.672Z,11.47
2022-09-28T01:24:48.422Z,11.54
2022-09-28T01:27:21.093Z,11.51
2022-09-28T01:29:47.624Z,11.47
2022-09-28T01:32:32.898Z,11.39
2022-09-28T01:35:10.366Z,11.45
2022-09-28T01:37:52.220Z,11.46
2022-09-28T01:40:21.000Z,11.48
2022-09-28T01:42:51.312Z,11.46
2022-09-28T01:45:25.000Z,11.45
2022-09-28T01:47:55.764Z,11.52
2022-09-28T01:50:24.371Z,11.48
2022-09-28T01:53:04.275Z,11.44
2022-09-28T01:55:34.219Z,11.43
2022-09-28T01:58:10.201Z,11.41
2022-09-28T02:00:39.471Z,11.46
2022-09-28T02:03:10.107Z,11.48
2022-09-28T02:05:38.189Z,11.51
2022-09-28T02:08:10.867Z,11.50
2022-09-28T02:10:44.607Z,11.50
2022-09-28T02:13:16.261Z,11.43
2022-09-28T02:15:49.583Z,11.46
2022-09-28T02:18:16.357Z,11.42
2022-09-28T02:20:48.711Z,11.32
2022-09-28T02:23:15.522Z,11.42
2022-09-28T02:25:49.892Z,11.45
2022-09-28T02:28:16.599Z,11.41
2022-09-28T02:30:44.519Z,11.34
2022-09-28T02:33:13.153Z,11.39
2022-09-28T02:35:41.393Z,11.33
2022-09-28T02:38:08.278Z,11.39
2022-09-28T02:40:36.832Z,11.40
2022-09-28T02:43:15.617Z,11.41
2022-09-28T02:46:08.679Z,11.45
2022-09-28T02:48:43.729Z,11.45
2022-09-28T02:51:35.976Z,11.45
2022-09-28T02:54:21.910Z,11.45
2022-09-28T02:56:54.543Z,11.43
2022-09-28T02:59:37.297Z,11.45
2022-09-28T03:02:11.130Z,11.44
2022-09-28T03:04:47.388Z,11.46
2022-09-28T03:07:25.720Z,11.47
2022-09-28T03:10:01.578Z,11.43
2022-09-28T03:12:31.543Z,11.50
2022-09-28T03:15:10.710Z,11.46
2022-09-28T03:17:37.508Z,11.33
2022-09-28T03:20:05.217Z,11.42
2022-09-28T03:22:31.787Z,11.35
2022-09-28T03:24:58.450Z,11.41
2022-09-28T03:27:25.079Z,11.38
2022-09-28T03:29:51.670Z,11.40
2022-09-28T03:32:18.256Z,11.38
2022-09-28T03:34:44.826Z,11.41
2022-09-28T03:37:11.428Z,11.42
2022-09-28T03:39:37.962Z,11.37
2022-09-28T03:42:04.585Z,11.39
2022-09-28T03:44:31.277Z,11.38
2022-09-28T03:46:57.877Z,11.32
2022-09-28T03:49:24.407Z,11.41
2022-09-28T03:51:51.058Z,11.45
2022-09-28T03:54:17.715Z,11.52
2022-09-28T03:56:44.278Z,11.43
2022-09-28T03:59:11.326Z,11.43
2022-09-28T04:01:38.148Z,11.55
2022-09-28T04:04:04.808Z,11.52
2022-09-28T04:06:31.394Z,11.50
2022-09-28T04:08:58.086Z,11.55
2022-09-28T04:11:24.688Z,11.54
2022-09-28T04:13:51.276Z,11.54
2022-09-28T04:16:18.989Z,11.54
2022-09-28T04:18:45.648Z,11.50
2022-09-28T04:21:13.293Z,11.46
2022-09-28T04:23:40.390Z,11.53
2022-09-28T04:26:16.634Z,11.56
2022-09-28T04:29:06.297Z,11.54
2022-09-28T04:31:45.854Z,11.53
2022-09-28T04:34:24.709Z,11.64
2022-09-28T04:36:51.301Z,11.54
2022-09-28T04:39:19.472Z,11.53
2022-09-28T04:41:48.345Z,11.65
2022-09-28T04:44:15.058Z,11.60
2022-09-28T04:46:41.600Z,11.53
2022-09-28T04:49:10.084Z,11.63
2022-09-28T04:51:36.664Z,11.66
2022-09-28T04:54:03.345Z,11.74
2022-09-28T04:56:29.904Z,11.85
2022-09-28T04:58:56.441Z,11.84
2022-09-28T05:01:24.353Z,11.90
2022-09-28T05:03:51.208Z,11.85
2022-09-28T05:06:17.993Z,11.92
2022-09-28T05:08:46.942Z,12.06
2022-09-28T05:11:14.309Z,12.18
2022-09-28T05:13:45.538Z,12.26
2022-09-28T05:16:16.427Z,12.30
2022-09-28T05:18:43.060Z,12.27
2022-09-28T05:21:14.208Z,12.32
2022-09-28T05:23:43.814Z,12.31
2022-09-28T05:26:10.534Z,12.24
2022-09-28T05:28:37.145Z,12.12
2022-09-28T05:31:05.008Z,12.02
2022-09-28T05:33:32.643Z,11.88
2022-09-28T05:36:05.602Z,11.96
2022-09-28T05:38:32.273Z,11.95
2022-09-28T05:41:02.102Z,11.95
2022-09-28T05:43:32.250Z,12.06
2022-09-28T05:46:02.189Z,12.04
2022-09-28T05:48:43.916Z,11.99
2022-09-28T05:51:10.493Z,11.95
2022-09-28T05:53:37.058Z,11.90
2022-09-28T05:56:03.724Z,11.96
2022-09-28T05:58:30.304Z,12.02
2022-09-28T06:00:57.415Z,12.11
2022-09-28T06:03:24.578Z,12.15
2022-09-28T06:05:51.565Z,12.17
2022-09-28T06:08:18.159Z,12.29
2022-09-28T06:10:44.740Z,12.31
2022-09-28T06:13:12.120Z,12.42
2022-09-28T06:15:39.213Z,12.37
2022-09-28T06:18:07.907Z,12.51
2022-09-28T06:20:36.236Z,12.54
2022-09-28T06:23:03.183Z,12.43
2022-09-28T06:25:29.818Z,12.56
2022-09-28T06:28:05.389Z,12.52
2022-09-28T06:30:34.416Z,12.54
2022-09-28T06:33:02.044Z,12.56
2022-09-28T06:35:30.465Z,12.75
2022-09-28T06:37:58.311Z,12.54
2022-09-28T06:40:25.158Z,12.53
2022-09-28T06:43:10.930Z,12.62
2022-09-28T06:45:38.472Z,12.62
2022-09-28T06:48:05.603Z,12.52
2022-09-28T06:50:34.340Z,12.61
2022-09-28T06:53:01.211Z,12.58
2022-09-28T06:55:28.257Z,12.24
2022-09-28T06:58:01.935Z,12.48
2022-09-28T07:00:31.253Z,12.32
2022-09-28T07:02:57.981Z,12.34
2022-09-28T07:05:27.404Z,12.55
2022-09-28T07:07:57.936Z,12.77
2022-09-28T07:10:25.796Z,12.74
2022-09-28T07:12:52.502Z,12.68
2022-09-28T07:15:19.567Z,12.61
2022-09-28T07:17:58.337Z,12.93
2022-09-28T07:20:27.617Z,12.98
2022-09-28T07:23:16.006Z,13.07
2022-09-28T07:25:48.062Z,13.34
2022-09-28T07:28:15.633Z,13.56
2022-09-28T07:30:44.262Z,13.82
2022-09-28T07:33:14.617Z,13.70
2022-09-28T07:35:44.652Z,13.43
2022-09-28T07:38:11.281Z,13.58
2022-09-28T07:40:56.811Z,13.54
2022-09-28T07:43:26.497Z,13.43
2022-09-28T07:45:56.892Z,13.68
2022-09-28T07:48:23.791Z,13.64
2022-09-28T07:50:57.373Z,13.77
2022-09-28T07:53:25.488Z,13.53
2022-09-28T07:55:56.717Z,13.76
2022-09-28T07:58:23.384Z,13.63
2022-09-28T08:00:56.760Z,13.59
2022-09-28T08:03:30.233Z,13.43
2022-09-28T08:05:59.653Z,13.51
2022-09-28T08:08:27.026Z,13.84
2022-09-28T08:10:53.657Z,13.88
2022-09-28T08:13:22.245Z,13.86
2022-09-28T08:15:51.909Z,13.89
2022-09-28T08:18:18.786Z,13.80
2022-09-28T08:21:04.060Z,13.68
2022-09-28T08:23:30.806Z,13.82
2022-09-28T08:25:58.140Z,13.92
2022-09-28T08:28:25.136Z,13.83
2022-09-28T08:30:51.862Z,14.23
2022-09-28T08:33:20.395Z,15.00
2022-09-28T08:35:47.696Z,14.92
2022-09-28T08:38:14.668Z,15.14
2022-09-28T08:41:03.957Z,15.00
2022-09-28T08:43:41.597Z,14.89
2022-09-28T08:46:09.743Z,15.12
2022-09-28T08:48:57.099Z,14.36
2022-09-28T08:51:44.005Z,14.29
2022-09-28T08:54:27.057Z,14.75
2022-09-28T08:57:18.722Z,15.34
2022-09-28T08:59:56.126Z,15.46
2022-09-28T09:02:34.421Z,15.23
2022-09-28T09:05:05.018Z,15.42
2022-09-28T09:07:49.523Z,15.52
2022-09-28T09:10:28.664Z,15.26
2022-09-28T09:13:07.334Z,15.25
2022-09-28T09:15:40.910Z,15.43
2022-09-28T09:18:23.779Z,15.12
2022-09-28T09:21:10.159Z,14.96
2022-09-28T09:23:56.785Z,15.29
2022-09-28T09:26:39.126Z,15.24
2022-09-28T09:29:37.651Z,15.14
2022-09-28T09:32:19.239Z,15.27
2022-09-28T09:35:06.865Z,15.17
2022-09-28T09:38:07.086Z,15.18
2022-09-28T09:40:42.110Z,14.91
2022-09-28T09:43:13.893Z,15.08
2022-09-28T09:45:49.301Z,15.00
2022-09-28T09:48:15.869Z,15.79
2022-09-28T09:50:57.893Z,15.55
2022-09-28T09:53:28.917Z,16.05
2022-09-28T09:56:04.214Z,16.32
2022-09-28T09:58:34.461Z,16.11
2022-09-28T10:01:17.408Z,16.05
2022-09-28T10:03:46.209Z,15.70
2022-09-28T10:06:16.994Z,15.93
2022-09-28T10:08:52.096Z,15.71
2022-09-28T10:11:37.433Z,15.62
2022-09-28T10:14:04.590Z,15.89
2022-09-28T10:16:33.195Z,16.04
2022-09-28T10:19:00.543Z,15.65
2022-09-28T10:21:27.890Z,15.70
2022-09-28T10:23:57.643Z,16.07
2022-09-28T10:26:28.443Z,16.00
2022-09-28T10:29:05.005Z,16.11
2022-09-28T10:31:40.599Z,15.97
2022-09-28T10:34:10.066Z,15.68
2022-09-28T10:37:05.451Z,15.55
2022-09-28T10:39:32.060Z,15.73
2022-09-28T10:42:04.338Z,15.63
2022-09-28T10:44:41.967Z,16.20
2022-09-28T10:47:15.191Z,16.20
2022-09-28T10:49:47.244Z,15.96
2022-09-28T10:52:41.804Z,15.66
2022-09-28T10:55:32.507Z,15.85
2022-09-28T10:58:30.335Z,16.12
2022-09-28T11:01:06.258Z,16.10
2022-09-28T11:03:33.097Z,15.86
2022-09-28T11:06:07.473Z,15.70
2022-09-28T11:08:42.844Z,15.31
2022-09-28T11:11:15.090Z,15.34
2022-09-28T11:13:46.070Z,15.28
2022-09-28T11:16:29.853Z,15.22
2022-09-28T11:18:57.732Z,15.26
2022-09-28T11:21:27.099Z,15.34
2022-09-28T11:24:27.389Z,15.21
2022-09-28T11:27:00.200Z,15.46
2022-09-28T11:29:44.210Z,15.28
2022-09-28T11:32:15.489Z,15.25
2022-09-28T11:34:59.936Z,15.50
2022-09-28T11:37:36.109Z,15.30
2022-09-28T11:40:21.433Z,15.73
2022-09-28T11:42:56.821Z,15.91
2022-09-28T11:45:26.196Z,15.53
2022-09-28T11:47:57.811Z,15.28
2022-09-28T11:50:48.108Z,15.19
2022-09-28T11:53:29.333Z,15.43
2022-09-28T11:56:30.273Z,15.52
2022-09-28T11:59:14.350Z,15.69
2022-09-28T12:01:45.514Z,15.71
2022-09-28T12:04:23.102Z,15.76
2022-09-28T12:07:19.109Z,16.08
2022-09-28T12:10:00.393Z,15.68
2022-09-28T12:12:52.465Z,15.43
2022-09-28T12:15:23.028Z,15.33
2022-09-28T12:18:07.372Z,15.10
2022-09-28T12:20:39.341Z,15.41
2022-09-28T12:23:11.849Z,15.63
2022-09-28T12:25:48.447Z,15.51
2022-09-28T12:28:22.651Z,15.61
2022-09-28T12:30:51.881Z,15.41
2022-09-28T12:33:18.524Z,15.43
2022-09-28T12:36:07.900Z,15.14
2022-09-28T12:39:19.062Z,14.77
2022-09-28T12:42:03.534Z,14.61
2022-09-28T12:44:32.786Z,14.53
2022-09-28T12:47:23.846Z,14.44
2022-09-28T12:50:38.044Z,14.43
2022-09-28T12:52:52.528Z,14.42
2022-09-28T12:55:41.574Z,14.39
2022-09-28T12:58:50.785Z,14.30
2022-09-28T13:01:51.252Z,14.24
2022-09-28T13:04:27.361Z,14.17
2022-09-28T13:07:42.883Z,14.00
2022-09-28T13:10:22.610Z,14.00
2022-09-28T13:13:26.976Z,14.05
2022-09-28T13:16:00.555Z,14.03
2022-09-28T13:18:48.929Z,14.12
2022-09-28T13:21:41.853Z,14.10
2022-09-28T13:24:31.050Z,14.07
2022-09-28T13:27:04.609Z,14.02
2022-09-28T13:29:32.132Z,13.99
2022-09-28T13:32:00.113Z,14.11
2022-09-28T13:34:32.900Z,14.15
2022-09-28T13:37:14.886Z,14.38
2022-09-28T13:39:44.527Z,14.39
2022-09-28T13:42:40.713Z,14.56
2022-09-28T13:45:22.506Z,14.84
2022-09-28T13:48:14.585Z,15.14
2022-09-28T13:50:56.543Z,15.66
2022-09-28T13:53:45.303Z,15.66
2022-09-28T13:56:38.119Z,15.54
2022-09-28T13:59:28.967Z,15.48
2022-09-28T14:02:40.214Z,15.40
2022-09-28T14:05:52.361Z,15.54
2022-09-28T14:08:28.389Z,15.61
2022-09-28T14:11:25.358Z,15.48
2022-09-28T14:13:59.994Z,15.27
2022-09-28T14:16:31.225Z,15.23
2022-09-28T14:19:02.911Z,15.17
2022-09-28T14:21:58.196Z,15.14
2022-09-28T14:25:07.113Z,15.17
2022-09-28T14:27:41.992Z,15.00
2022-09-28T14:30:11.532Z,14.90
2022-09-28T14:32:40.026Z,14.84
2022-09-28T14:35:18.597Z,14.65
2022-09-28T14:38:07.104Z,14.53
2022-09-28T14:41:15.345Z,14.33
2022-09-28T14:43:44.964Z,14.27
2022-09-28T14:46:11.596Z,14.14
2022-09-28T14:48:50.988Z,14.15
2022-09-28T14:51:26.821Z,14.13
2022-09-28T14:53:54.958Z,14.05
2022-09-28T14:56:22.255Z,13.98
2022-09-28T14:58:54.122Z,13.96
2022-09-28T15:01:24.609Z,13.87
2022-09-28T15:04:00.429Z,13.91
2022-09-28T15:06:29.147Z,13.94
2022-09-28T15:08:55.755Z,13.86
2022-09-28T15:11:24.439Z,13.88
2022-09-28T15:13:58.216Z,13.87
2022-09-28T15:16:24.832Z,13.82
2022-09-28T15:19:06.733Z,13.99
2022-09-28T15:21:43.267Z,14.01
2022-09-28T15:24:31.417Z,14.02
2022-09-28T15:26:59.322Z,13.95
2022-09-28T15:29:31.089Z,13.97
2022-09-28T15:31:58.593Z,14.00
2022-09-28T15:34:48.403Z,13.83
2022-09-28T15:37:17.264Z,13.89
2022-09-28T15:39:48.322Z,13.82
2022-09-28T15:42:16.693Z,13.88
2022-09-28T15:44:45.977Z,13.87
2022-09-28T15:47:14.727Z,13.81
2022-09-28T15:50:02.423Z,13.73
2022-09-28T15:52:38.706Z,13.77
2022-09-28T15:55:26.417Z,13.71
2022-09-28T15:58:15.181Z,13.77
2022-09-28T16:00:42.633Z,13.75
2022-09-28T16:03:09.210Z,13.80
2022-09-28T16:05:43.547Z,13.77
2022-09-28T16:08:42.035Z,13.73
2022-09-28T16:11:21.820Z,13.63
2022-09-28T16:13:57.437Z,13.59
2022-09-28T16:16:52.226Z,13.58
2022-09-28T16:19:23.547Z,13.52
2022-09-28T16:21:52.110Z,13.58
2022-09-28T16:24:22.084Z,13.55
2022-09-28T16:26:49.389Z,13.60
2022-09-28T16:29:27.332Z,13.56
2022-09-28T16:31:54.074Z,13.64
2022-09-28T16:34:24.852Z,13.63
2022-09-28T16:36:51.739Z,13.58
2022-09-28T16:39:19.040Z,13.57
2022-09-28T16:41:49.112Z,13.61
2022-09-28T16:44:19.718Z,13.61
2022-09-28T16:46:46.651Z,13.63
2022-09-28T16:49:18.772Z,13.57
2022-09-28T16:51:47.207Z,13.54
2022-09-28T16:54:35.128Z,13.58
2022-09-28T16:57:02.336Z,13.50
2022-09-28T16:59:29.152Z,13.54
2022-09-28T17:01:59.095Z,13.57
2022-09-28T17:04:26.625Z,13.56
2022-09-28T17:06:54.429Z,13.60
2022-09-28T17:09:24.125Z,13.59
2022-09-28T17:11:56.986Z,13.50
2022-09-28T17:14:24.270Z,13.47
2022-09-28T17:17:13.766Z,13.66
2022-09-28T17:19:40.669Z,13.53
2022-09-28T17:22:09.067Z,13.38
2022-09-28T17:24:35.695Z,13.34
2022-09-28T17:27:03.425Z,13.20
2022-09-28T17:29:30.296Z,13.08
2022-09-28T17:31:56.871Z,12.89
2022-09-28T17:34:23.796Z,12.80
2022-09-28T17:36:50.504Z,12.78
2022-09-28T17:39:19.158Z,12.65
2022-09-28T17:41:45.872Z,12.55
2022-09-28T17:44:16.062Z,12.44
2022-09-28T17:46:49.177Z,12.48
2022-09-28T17:49:16.740Z,12.37
2022-09-28T17:51:43.403Z,12.30
2022-09-28T17:54:10.356Z,12.22
2022-09-28T17:56:37.120Z,12.18
2022-09-28T17:59:06.638Z,12.23
2022-09-28T18:01:34.676Z,12.24
2022-09-28T18:04:05.776Z,12.20
2022-09-28T18:06:37.310Z,12.17
2022-09-28T18:09:05.343Z,12.08
2022-09-28T18:11:32.960Z,12.11
2022-09-28T18:13:59.646Z,12.03
2022-09-28T18:16:28.030Z,12.00
2022-09-28T18:18:54.930Z,11.93
2022-09-28T18:21:21.551Z,12.05
2022-09-28T18:23:48.215Z,11.94
2022-09-28T18:26:26.640Z,11.84
2022-09-28T18:28:56.279Z,11.83
2022-09-28T18:31:23.033Z,11.65
2022-09-28T18:33:49.942Z,11.70
2022-09-28T18:36:16.612Z,11.55
2022-09-28T18:38:43.162Z,11.52
2022-09-28T18:41:15.786Z,11.48
2022-09-28T18:43:48.970Z,11.24
2022-09-28T18:46:15.890Z,11.13
2022-09-28T18:48:44.041Z,11.10
2022-09-28T18:51:11.961Z,10.94
2022-09-28T18:53:41.766Z,10.90
2022-09-28T18:56:10.145Z,10.81
2022-09-28T18:58:37.860Z,10.77
2022-09-28T19:01:28.359Z,10.73
2022-09-28T19:03:55.116Z,10.60
2022-09-28T19:06:21.730Z,10.54
2022-09-28T19:08:52.829Z,10.52
2022-09-28T19:11:19.567Z,10.42
2022-09-28T19:13:46.122Z,10.39
2022-09-28T19:16:14.636Z,10.37
2022-09-28T19:18:41.655Z,10.32
2022-09-28T19:21:11.533Z,10.23
2022-09-28T19:23:39.215Z,10.31
2022-09-28T19:26:08.566Z,10.19
2022-09-28T19:28:35.595Z,10.12
2022-09-28T19:31:04.020Z,10.18
2022-09-28T19:33:30.761Z,10.16
2022-09-28T19:35:59.055Z,9.92
2022-09-28T19:38:29.378Z,10.09
2022-09-28T19:40:56.463Z,10.08
2022-09-28T19:43:23.177Z,10.00
2022-09-28T19:45:52.466Z,9.96
2022-09-28T19:48:21.908Z,9.89
2022-09-28T19:51:15.663Z,9.82
2022-09-28T19:53:42.271Z,9.76
2022-09-28T19:56:08.883Z,9.77
2022-09-28T19:58:36.720Z,9.73
2022-09-28T20:01:08.706Z,9.65
2022-09-28T20:03:35.414Z,9.64
2022-09-28T20:06:02.448Z,9.66
2022-09-28T20:08:32.335Z,9.62
2022-09-28T20:10:59.986Z,9.58
2022-09-28T20:13:31.690Z,9.60
2022-09-28T20:16:10.242Z,9.55
2022-09-28T20:18:38.794Z,9.55
2022-09-28T20:21:07.436Z,9.50
2022-09-28T20:23:38.875Z,9.48
2022-09-28T20:26:06.865Z,9.45
2022-09-28T20:28:33.426Z,9.47
2022-09-28T20:31:07.545Z,9.41
2022-09-28T20:33:35.459Z,9.38
2022-09-28T20:36:07.067Z,9.39
2022-09-28T20:38:34.220Z,9.35
2022-09-28T20:41:01.757Z,9.35
2022-09-28T20:43:32.146Z,9.32
2022-09-28T20:45:58.996Z,9.27
2022-09-28T20:48:26.204Z,9.21
2022-09-28T20:51:00.861Z,9.22
2022-09-28T20:53:27.522Z,9.14
2022-09-28T20:56:05.236Z,9.09
2022-09-28T20:58:31.896Z,9.02
2022-09-28T21:01:11.273Z,9.05
2022-09-28T21:03:38.391Z,8.99
2022-09-28T21:06:10.036Z,8.92
2022-09-28T21:08:38.635Z,8.92
2022-09-28T21:11:06.574Z,8.94
2022-09-28T21:13:33.598Z,8.89
2022-09-28T21:16:04.176Z,8.90
2022-09-28T21:18:30.879Z,8.76
2022-09-28T21:20:57.532Z,8.66
2022-09-28T21:23:25.022Z,8.80
2022-09-28T21:26:03.300Z,8.81
2022-09-28T21:28:32.059Z,8.76
2022-09-28T21:31:00.307Z,8.85
2022-09-28T21:33:27.111Z,8.78
2022-09-28T21:35:53.895Z,8.70
2022-09-28T21:38:20.455Z,8.71
2022-09-28T21:40:47.192Z,8.44
2022-09-28T21:43:13.911Z,8.30
2022-09-28T21:45:41.824Z,8.30
2022-09-28T21:48:08.496Z,8.12
2022-09-28T21:50:35.184Z,7.97
2022-09-28T21:53:03.208Z,7.88
2022-09-28T21:55:29.845Z,7.79
2022-09-28T21:57:56.389Z,7.78
2022-09-28T22:00:26.229Z,7.72
2022-09-28T22:02:53.003Z,7.59
2022-09-28T22:05:19.746Z,7.37
2022-09-28T22:07:48.873Z,7.56
2022-09-28T22:10:15.473Z,7.43
2022-09-28T22:12:42.216Z,7.33
2022-09-28T22:15:09.948Z,7.30
2022-09-28T22:17:36.552Z,7.21
2022-09-28T22:20:03.862Z,7.38
2022-09-28T22:22:30.519Z,7.15
2022-09-28T22:24:57.101Z,7.42
2022-09-28T22:27:24.105Z,7.38
2022-09-28T22:29:51.169Z,7.27
2022-09-28T22:32:17.852Z,7.28
2022-09-28T22:34:44.523Z,7.10
2022-09-28T22:37:11.100Z,7.22
2022-09-28T22:39:38.069Z,7.18
2022-09-28T22:42:04.881Z,7.20
2022-09-28T22:44:35.691Z,7.08
2022-09-28T22:47:02.660Z,7.13
2022-09-28T22:49:29.411Z,7.02
2022-09-28T22:51:56.117Z,7.12
2022-09-28T22:54:22.711Z,7.22
2022-09-28T22:56:49.433Z,7.10
2022-09-28T22:59:15.974Z,7.19
2022-09-28T23:01:42.585Z,7.09
2022-09-28T23:04:09.281Z,7.20
2022-09-28T23:06:35.893Z,7.13
2022-09-28T23:09:02.656Z,6.99
2022-09-28T23:11:29.776Z,7.00
2022-09-28T23:13:58.196Z,7.19
2022-09-28T23:16:26.855Z,7.01
2022-09-28T23:18:55.131Z,6.93
2022-09-28T23:21:24.526Z,6.99
2022-09-28T23:23:53.519Z,7.34
2022-09-28T23:26:25.494Z,7.33
2022-09-28T23:28:53.042Z,7.24
2022-09-28T23:31:27.985Z,7.32
2022-09-28T23:34:03.436Z,7.08
2022-09-28T23:36:29.961Z,6.97
2022-09-28T23:38:56.709Z,6.86
2022-09-28T23:41:23.354Z,6.82
2022-09-28T23:43:49.937Z,6.92
2022-09-28T23:46:20.731Z,6.99
2022-09-28T23:48:48.558Z,7.10
2022-09-28T23:51:15.182Z,7.09
2022-09-28T23:53:41.743Z,7.12
2022-09-28T23:56:08.281Z,7.02
2022-09-28T23:58:34.910Z,6.87
